Time;durP1;ratioP1;P1;durP2;ratioP2;P2;SDS_P1;SDS_P2;PMS_P1;PMS_P2;Temp;Humidity;BMP_temperature;BMP_pressure;BME280_temperature;BME280_humidity;BME280_pressure;Samples;Min_cycle;Max_cycle;Signal;HPM_P1;HPM_P2
2024/03/29 01:45:31;;;;;;;2.35;1.02;;;10.90;76.00;;;;;;10395855;28;20279;-70
2024/03/29 01:50:36;;;;;;;3.78;0.80;;;10.90;77.30;;;;;;10412005;28;20237;-67
2024/03/29 01:55:39;;;;;;;4.70;0.73;;;11.00;76.20;;;;;;10412234;28;20231;-71
2024/03/29 02:00:51;;;;;;;2.28;0.90;;;11.00;74.50;;;;;;10411571;28;20291;-69
2024/03/29 02:05:57;;;;;;;2.25;0.80;;;11.00;76.60;;;;;;10410938;28;20235;-69
2024/03/29 02:11:00;;;;;;;1.77;0.70;;;11.00;75.70;;;;;;10411433;28;20214;-67
2024/03/29 02:16:03;;;;;;;4.40;0.98;;;11.00;75.60;;;;;;10412164;28;22060;-68
2024/03/29 02:21:08;;;;;;;2.35;0.77;;;11.00;75.50;;;;;;10411090;28;20214;-69
2024/03/29 02:26:12;;;;;;;4.57;0.80;;;11.00;74.30;;;;;;10410676;28;20226;-69
2024/03/29 02:31:14;;;;;;;1.85;0.55;;;11.00;75.00;;;;;;10411110;28;20199;-70
2024/03/29 02:36:17;;;;;;;4.38;1.15;;;11.00;74.50;;;;;;10412161;28;20211;-70
2024/03/29 02:41:21;;;;;;;2.17;0.77;;;11.10;75.30;;;;;;10411211;28;20280;-69
2024/03/29 02:46:25;;;;;;;2.40;0.95;;;11.10;75.50;;;;;;10410742;28;20244;-67
2024/03/29 02:51:27;;;;;;;2.72;0.70;;;11.10;74.90;;;;;;10409880;28;20211;-66
2024/03/29 02:56:31;;;;;;;2.63;0.73;;;11.20;74.30;;;;;;10411840;28;21436;-66
2024/03/29 03:01:33;;;;;;;2.13;0.90;;;11.20;74.80;;;;;;10411039;28;20226;-67
2024/03/29 03:06:36;;;;;;;0.93;0.47;;;11.20;73.30;;;;;;10412988;28;20295;-66
2024/03/29 03:11:40;;;;;;;2.05;0.40;;;11.20;74.30;;;;;;10410097;28;20276;-65
2024/03/29 03:16:42;;;;;;;1.98;0.73;;;11.30;74.30;;;;;;10409719;28;20257;-65
2024/03/29 03:21:45;;;;;;;1.42;0.50;;;11.30;74.00;;;;;;10410326;28;20238;-67
2024/03/29 03:26:49;;;;;;;1.63;0.88;;;11.40;73.80;;;;;;10410513;28;20300;-66
2024/03/29 03:31:52;;;;;;;1.52;0.75;;;11.40;75.60;;;;;;10409934;28;20284;-67
2024/03/29 03:36:54;;;;;;;1.60;0.60;;;11.50;74.40;;;;;;10408451;28;20287;-65
2024/03/29 03:41:58;;;;;;;1.48;0.73;;;11.50;75.20;;;;;;10410564;28;20359;-67
2024/03/29 03:47:00;;;;;;;1.70;0.70;;;11.50;74.50;;;;;;10409555;28;20264;-66
2024/03/29 03:52:03;;;;;;;1.80;0.55;;;11.40;74.70;;;;;;10406102;28;20838;-65
2024/03/29 03:57:07;;;;;;;2.75;0.80;;;11.40;74.70;;;;;;10400469;28;20287;-65
2024/03/29 04:02:10;;;;;;;1.42;0.50;;;11.40;74.70;;;;;;10409968;28;20799;-65
2024/03/29 04:07:12;;;;;;;2.30;0.70;;;11.40;74.60;;;;;;10407840;28;20280;-65
2024/03/29 04:12:16;;;;;;;0.80;0.50;;;11.40;75.10;;;;;;10410177;28;20234;-66
2024/03/29 04:17:19;;;;;;;1.42;0.60;;;11.40;75.30;;;;;;10408982;28;20347;-66
2024/03/29 04:22:21;;;;;;;2.67;0.73;;;11.40;76.10;;;;;;10409407;28;20234;-66
2024/03/29 04:27:26;;;;;;;1.40;0.50;;;11.30;75.80;;;;;;10409249;28;20271;-66
2024/03/29 04:32:28;;;;;;;1.08;0.60;;;11.30;75.80;;;;;;10410293;28;20283;-65
2024/03/29 04:37:31;;;;;;;2.42;0.73;;;11.20;76.60;;;;;;10410146;28;20425;-65
2024/03/29 04:42:35;;;;;;;2.60;0.95;;;11.20;76.40;;;;;;10413681;28;20239;-65
2024/03/29 04:47:37;;;;;;;2.42;0.70;;;11.20;76.40;;;;;;10416557;28;20253;-66
2024/03/29 04:52:40;;;;;;;2.50;0.75;;;11.10;77.00;;;;;;10418135;28;20227;-67
2024/03/29 04:57:44;;;;;;;4.72;0.75;;;11.00;76.90;;;;;;10418156;28;20566;-64
2024/03/29 05:02:46;;;;;;;2.17;0.63;;;10.90;78.00;;;;;;10417745;28;20299;-65
2024/03/29 05:07:49;;;;;;;1.95;0.70;;;10.90;77.70;;;;;;10418425;28;20227;-67
2024/03/29 05:12:54;;;;;;;4.20;0.90;;;10.90;78.20;;;;;;10419284;28;20238;-65
2024/03/29 05:17:56;;;;;;;2.95;0.70;;;10.80;78.60;;;;;;10417455;28;20267;-65
2024/03/29 05:22:59;;;;;;;1.48;0.80;;;10.80;79.10;;;;;;10417003;28;20386;-66
2024/03/29 05:28:05;;;;;;;2.65;1.05;;;10.80;80.10;;;;;;10417870;28;20307;-66
2024/03/29 05:33:08;;;;;;;3.67;1.20;;;10.70;80.70;;;;;;10414936;28;20231;-67
2024/03/29 05:38:10;;;;;;;4.28;1.15;;;10.70;81.00;;;;;;10411863;28;20742;-67
2024/03/29 05:43:14;;;;;;;2.50;1.00;;;10.60;81.30;;;;;;10414987;28;20311;-67
2024/03/29 05:48:18;;;;;;;2.40;0.82;;;10.60;81.50;;;;;;10412602;28;21422;-67
2024/03/29 05:53:21;;;;;;;1.38;0.95;;;10.60;81.80;;;;;;10414828;28;20226;-67
2024/03/29 05:58:25;;;;;;;1.50;0.80;;;10.50;82.20;;;;;;10416036;28;20207;-66
2024/03/29 06:03:29;;;;;;;4.28;1.10;;;10.50;82.80;;;;;;10416596;28;20227;-67
2024/03/29 06:08:31;;;;;;;2.00;0.98;;;10.50;82.50;;;;;;10414651;28;20219;-65
2024/03/29 06:18:52;;;;;;;5.20;1.10;;;10.50;82.80;;;;;;10412319;28;20203;-67
2024/03/29 06:23:54;;;;;;;5.35;1.45;;;10.50;82.80;;;;;;10413287;28;20238;-68
2024/03/29 06:28:58;;;;;;;2.53;1.27;;;10.40;83.40;;;;;;10414902;28;20231;-67
2024/03/29 06:34:01;;;;;;;1.90;1.10;;;10.40;83.60;;;;;;10414775;28;20230;-65
2024/03/29 06:39:04;;;;;;;4.18;1.10;;;10.40;83.60;;;;;;10414232;28;21859;-67
2024/03/29 06:44:08;;;;;;;4.82;1.52;;;10.50;83.20;;;;;;10414106;28;20268;-67
2024/03/29 06:49:11;;;;;;;5.35;1.58;;;10.50;83.10;;;;;;10415465;28;20229;-66
2024/03/29 06:54:13;;;;;;;2.45;1.20;;;10.50;84.00;;;;;;10412568;28;20230;-66
2024/03/29 06:59:17;;;;;;;3.42;1.17;;;10.50;84.50;;;;;;10415225;28;20202;-65
2024/03/29 07:04:20;;;;;;;4.45;1.30;;;10.50;83.90;;;;;;10412130;28;20312;-66
2024/03/29 07:09:24;;;;;;;2.28;1.30;;;10.60;83.90;;;;;;10409816;28;20315;-66
2024/03/29 07:14:28;;;;;;;3.38;1.30;;;10.60;83.60;;;;;;10411708;28;20256;-65
2024/03/29 07:19:30;;;;;;;2.92;1.48;;;10.60;84.70;;;;;;10410673;28;20206;-66
2024/03/29 07:24:33;;;;;;;2.45;1.08;;;10.70;84.30;;;;;;10408559;28;20230;-66
2024/03/29 07:29:37;;;;;;;3.22;1.08;;;10.70;84.20;;;;;;10408891;28;20364;-66
2024/03/29 07:34:43;;;;;;;4.35;1.60;;;10.80;84.80;;;;;;10407893;28;20447;-68
2024/03/29 07:39:46;;;;;;;2.72;1.17;;;11.00;86.80;;;;;;10409771;28;20784;-67
2024/03/29 07:44:50;;;;;;;3.92;1.40;;;11.00;85.10;;;;;;10413943;28;20226;-66
2024/03/29 07:49:53;;;;;;;1.60;1.15;;;11.10;85.20;;;;;;10413772;28;20314;-63
2024/03/29 07:54:56;;;;;;;1.85;1.10;;;11.20;85.70;;;;;;10413134;28;20292;-73
2024/03/29 08:00:00;;;;;;;2.03;0.90;;;11.20;86.50;;;;;;10436762;28;20554;-72
2024/03/29 08:05:02;;;;;;;1.88;1.00;;;11.20;85.70;;;;;;10418833;28;20257;-70
2024/03/29 08:10:06;;;;;;;1.10;0.77;;;11.20;86.00;;;;;;10414458;28;21941;-68
2024/03/29 08:15:10;;;;;;;2.40;0.90;;;11.30;85.70;;;;;;10468240;28;20309;-64
2024/03/29 08:20:13;;;;;;;1.10;0.75;;;11.30;86.10;;;;;;10449687;28;20353;-68
2024/03/29 08:25:16;;;;;;;3.60;1.08;;;11.40;85.90;;;;;;10462186;28;20230;-64
2024/03/29 08:30:20;;;;;;;1.65;0.90;;;11.50;86.40;;;;;;10490651;28;20247;-66
2024/03/29 08:35:22;;;;;;;1.27;0.82;;;11.50;87.30;;;;;;10469329;28;20305;-64
2024/03/29 08:40:28;;;;;;;2.15;1.13;;;11.50;87.30;;;;;;10479205;28;20297;-64
2024/03/29 08:45:32;;;;;;;3.90;1.60;;;11.50;87.90;;;;;;10488105;28;20246;-63
2024/03/29 08:50:35;;;;;;;2.03;1.00;;;11.60;87.80;;;;;;10426341;28;20235;-65
2024/03/29 08:55:39;;;;;;;1.67;0.95;;;11.60;87.90;;;;;;10417244;28;20279;-65
2024/03/29 09:00:43;;;;;;;2.53;1.08;;;11.60;87.90;;;;;;10406676;28;20280;-67
2024/03/29 09:05:45;;;;;;;2.47;1.20;;;11.60;89.20;;;;;;10409020;28;20230;-67
2024/03/29 09:10:48;;;;;;;1.67;1.10;;;11.70;89.50;;;;;;10413634;28;20225;-66
2024/03/29 09:15:52;;;;;;;1.95;0.98;;;11.70;88.20;;;;;;10413638;28;20744;-67
2024/03/29 09:20:58;;;;;;;3.83;1.38;;;11.80;89.30;;;;;;10403352;28;20203;-67
2024/03/29 09:26:05;;;;;;;3.67;1.30;;;11.80;89.20;;;;;;10402438;28;20235;-68
2024/03/29 09:31:09;;;;;;;2.63;1.33;;;11.80;89.80;;;;;;10415170;28;20230;-68
2024/03/29 09:36:11;;;;;;;1.95;1.13;;;12.00;89.50;;;;;;10412871;28;20272;-68
2024/03/29 09:41:16;;;;;;;1.33;1.20;;;12.00;89.70;;;;;;10402557;28;20237;-67
2024/03/29 09:46:20;;;;;;;2.60;1.27;;;12.10;89.20;;;;;;10401095;28;20206;-69
2024/03/29 09:51:23;;;;;;;2.22;1.25;;;12.20;89.80;;;;;;10413239;28;20234;-67
2024/03/29 09:56:27;;;;;;;3.83;1.50;;;12.30;90.00;;;;;;10409634;28;20240;-67
2024/03/29 10:01:32;;;;;;;2.67;1.23;;;12.30;89.70;;;;;;10400243;28;20207;-67
2024/03/29 10:06:39;;;;;;;2.42;1.10;;;12.40;89.40;;;;;;10402826;28;20211;-68
2024/03/29 10:11:41;;;;;;;1.23;1.00;;;12.40;89.40;;;;;;10412801;28;20238;-67
2024/03/29 10:16:45;;;;;;;2.60;0.93;;;12.60;89.10;;;;;;10409192;28;20206;-67
2024/03/29 10:21:48;;;;;;;2.75;1.10;;;12.70;89.20;;;;;;10402308;28;21638;-67
2024/03/29 10:26:51;;;;;;;2.85;1.25;;;12.80;88.60;;;;;;10405806;28;21215;-67
2024/03/29 10:31:56;;;;;;;3.20;1.35;;;12.90;88.30;;;;;;10411878;28;20238;-70
2024/03/29 10:36:59;;;;;;;1.73;1.10;;;13.00;88.70;;;;;;10409158;28;20562;-68
2024/03/29 10:42:03;;;;;;;1.70;1.02;;;13.00;89.20;;;;;;10401380;28;20280;-68
2024/03/29 10:47:07;;;;;;;2.45;0.88;;;13.00;89.20;;;;;;10402597;28;20263;-66
2024/03/29 10:52:13;;;;;;;1.17;0.90;;;13.00;88.50;;;;;;10413887;28;20238;-67
2024/03/29 10:57:21;;;;;;;2.13;0.98;;;13.00;88.80;;;;;;10408450;28;20959;-69
2024/03/29 11:02:34;;;;;;;1.63;1.02;;;13.10;88.60;;;;;;10405180;28;20227;-66
2024/03/29 11:07:41;;;;;;;3.33;1.15;;;13.20;89.40;;;;;;10408409;28;20990;-67
2024/03/29 11:12:55;;;;;;;1.35;0.88;;;13.20;88.70;;;;;;10415435;28;20243;-66
2024/03/29 11:17:59;;;;;;;2.60;1.20;;;13.30;88.30;;;;;;10408911;28;20674;-66
2024/03/29 11:23:06;;;;;;;0.88;0.70;;;13.40;88.50;;;;;;10403326;28;20227;-66
2024/03/29 11:28:13;;;;;;;0.60;0.60;;;13.60;88.00;;;;;;10406593;28;20745;-65
2024/03/29 11:33:33;;;;;;;1.63;1.00;;;13.70;87.90;;;;;;10410687;28;20239;-66
2024/03/29 11:38:37;;;;;;;1.60;0.70;;;13.90;88.00;;;;;;10405855;28;20677;-66
2024/03/29 11:43:40;;;;;;;1.30;1.08;;;14.00;87.60;;;;;;10402474;28;20264;-66
2024/03/29 11:48:45;;;;;;;1.00;0.80;;;14.30;87.70;;;;;;10406840;28;20218;-67
2024/03/29 11:53:50;;;;;;;2.42;1.30;;;14.50;86.60;;;;;;10411869;28;20237;-66
2024/03/29 11:58:54;;;;;;;2.60;1.30;;;14.70;86.80;;;;;;10412931;28;21194;-66
2024/03/29 12:03:59;;;;;;;1.02;0.77;;;14.80;86.50;;;;;;10410579;28;20222;-66
2024/03/29 12:09:02;;;;;;;1.35;0.90;;;14.80;86.30;;;;;;10415995;28;20231;-66
2024/03/29 12:14:12;;;;;;;2.17;1.65;;;14.70;86.20;;;;;;10416887;28;20499;-67
2024/03/29 12:19:27;;;;;;;2.05;1.20;;;14.80;86.60;;;;;;10409798;28;20215;-66
2024/03/29 12:24:29;;;;;;;2.13;1.88;;;14.80;86.50;;;;;;10408534;28;20755;-67
2024/03/29 12:29:33;;;;;;;1.98;1.20;;;14.90;85.30;;;;;;10413272;28;20561;-67
2024/03/29 12:34:37;;;;;;;1.55;0.82;;;15.00;86.00;;;;;;10416817;28;20235;-68
2024/03/29 12:39:42;;;;;;;1.25;0.70;;;15.00;85.30;;;;;;10406920;28;20286;-67
2024/03/29 12:44:45;;;;;;;1.30;0.47;;;15.00;83.90;;;;;;10407064;28;20283;-67
2024/03/29 12:49:49;;;;;;;1.00;0.52;;;15.10;84.10;;;;;;10414720;28;20231;-66
2024/03/29 12:54:52;;;;;;;1.25;0.60;;;15.20;83.30;;;;;;10416827;28;20815;-67
2024/03/29 12:59:54;;;;;;;1.23;0.60;;;15.30;79.90;;;;;;10405396;28;20271;-66
2024/03/29 13:05:01;;;;;;;1.05;0.60;;;15.40;80.50;;;;;;10404902;28;20230;-69
2024/03/29 13:10:12;;;;;;;0.73;0.40;;;15.40;80.70;;;;;;10414468;28;20223;-67
2024/03/29 13:15:20;;;;;;;2.28;0.73;;;15.60;79.40;;;;;;10412226;28;20260;-66
2024/03/29 13:20:25;;;;;;;2.53;0.73;;;15.80;81.10;;;;;;10402417;28;20218;-66
2024/03/29 13:25:28;;;;;;;1.83;0.50;;;16.30;79.90;;;;;;10403588;28;20739;-66
2024/03/29 13:30:30;;;;;;;2.25;0.63;;;16.60;78.60;;;;;;10411863;28;20223;-66
2024/03/29 13:35:34;;;;;;;2.22;1.08;;;16.80;80.00;;;;;;10411686;28;21189;-67
2024/03/29 13:40:37;;;;;;;2.50;0.88;;;16.90;79.20;;;;;;10403930;28;20233;-67
2024/03/29 13:45:40;;;;;;;3.10;0.50;;;17.10;78.70;;;;;;10403520;28;20769;-67
2024/03/29 13:50:44;;;;;;;3.33;0.73;;;17.30;78.60;;;;;;10412093;28;20283;-67
2024/03/29 13:55:46;;;;;;;0.93;0.50;;;17.40;76.60;;;;;;10456314;28;20234;-66
2024/03/29 14:00:50;;;;;;;6.55;2.00;;;17.50;76.70;;;;;;10446246;28;20545;-63
2024/03/29 14:05:54;;;;;;;0.93;0.50;;;17.50;76.70;;;;;;10449182;28;20815;-64
2024/03/29 14:10:57;;;;;;;0.85;0.57;;;18.10;75.30;;;;;;10457737;28;20222;-65
2024/03/29 14:16:00;;;;;;;1.55;0.80;;;19.10;76.00;;;;;;10451222;28;20252;-68
2024/03/29 14:21:05;;;;;;;1.35;0.63;;;19.70;75.70;;;;;;10427504;28;20300;-67
2024/03/29 14:26:08;;;;;;;1.40;0.73;;;19.90;75.60;;;;;;10445563;28;20241;-67
2024/03/29 14:31:13;;;;;;;0.63;0.47;;;19.60;76.60;;;;;;10455046;28;20231;-67
2024/03/29 14:36:17;;;;;;;0.55;0.40;;;19.20;76.80;;;;;;10440666;28;20207;-67
2024/03/29 14:41:21;;;;;;;0.43;0.43;;;18.90;77.00;;;;;;10427506;28;20275;-65
2024/03/29 14:46:25;;;;;;;0.60;0.50;;;18.50;77.90;;;;;;10424867;28;21920;-67
2024/03/29 14:51:30;;;;;;;0.90;0.60;;;18.30;78.40;;;;;;10433086;28;20260;-60
2024/03/29 14:56:34;;;;;;;0.57;0.47;;;18.10;78.80;;;;;;10429904;28;20211;-59
2024/03/29 15:01:37;;;;;;;1.42;0.80;;;18.10;78.60;;;;;;10415093;28;20226;-63
2024/03/29 15:06:41;;;;;;;1.73;1.00;;;18.10;78.80;;;;;;10417287;28;20261;-62
2024/03/29 15:11:44;;;;;;;0.70;0.63;;;18.10;79.50;;;;;;10429995;28;20230;-63
2024/03/29 15:16:52;;;;;;;1.17;0.70;;;18.30;78.30;;;;;;10427870;28;20248;-62
2024/03/29 15:21:57;;;;;;;1.42;0.73;;;18.20;77.80;;;;;;10420316;28;20223;-60
2024/03/29 15:27:02;;;;;;;0.43;0.40;;;18.00;78.40;;;;;;10415942;28;20837;-61
2024/03/29 15:32:05;;;;;;;0.50;0.40;;;17.70;78.20;;;;;;10424816;28;20260;-60
2024/03/29 15:37:09;;;;;;;1.83;1.20;;;17.40;78.10;;;;;;10432818;28;21435;-62
2024/03/29 15:42:12;;;;;;;1.75;0.55;;;17.30;79.00;;;;;;10422745;28;20218;-61
2024/03/29 15:47:15;;;;;;;2.15;1.88;;;17.20;78.70;;;;;;10426072;28;20198;-60
2024/03/29 15:52:19;;;;;;;2.15;1.92;;;17.10;79.30;;;;;;10438112;28;20308;-61
2024/03/29 15:57:21;;;;;;;1.00;0.90;;;17.00;79.20;;;;;;10432513;28;20215;-60
2024/03/29 16:02:24;;;;;;;3.80;0.90;;;16.80;80.20;;;;;;10420572;28;20303;-62
2024/03/29 16:07:28;;;;;;;2.28;0.90;;;16.60;80.20;;;;;;10426201;28;20211;-59
2024/03/29 16:12:31;;;;;;;0.85;0.63;;;16.50;80.40;;;;;;10435574;28;20808;-60
2024/03/29 16:17:33;;;;;;;1.38;0.93;;;16.30;80.30;;;;;;10426971;28;20218;-60
2024/03/29 16:22:37;;;;;;;0.70;0.70;;;16.20;80.50;;;;;;10417946;28;20234;-61
2024/03/29 16:27:40;;;;;;;1.25;1.10;;;16.00;80.50;;;;;;10427380;28;20206;-64
2024/03/29 16:32:42;;;;;;;0.82;0.80;;;15.90;80.70;;;;;;10421206;28;20218;-61
2024/03/29 16:37:47;;;;;;;1.08;0.98;;;15.90;81.10;;;;;;10412800;28;20507;-63
2024/03/29 16:42:49;;;;;;;1.00;0.90;;;15.80;80.80;;;;;;10412316;28;20233;-63
2024/03/29 16:47:52;;;;;;;1.58;1.00;;;15.70;81.00;;;;;;10423700;28;20855;-60
2024/03/29 16:52:56;;;;;;;1.88;1.30;;;15.70;81.30;;;;;;10427383;28;20315;-62
2024/03/29 16:57:59;;;;;;;1.75;1.10;;;15.60;81.30;;;;;;10423634;28;20219;-63
2024/03/29 17:03:02;;;;;;;1.65;1.10;;;15.60;81.80;;;;;;10408697;28;20300;-60
2024/03/29 17:08:07;;;;;;;1.38;0.80;;;15.50;82.00;;;;;;10414510;28;20304;-61
2024/03/29 17:13:09;;;;;;;1.73;0.98;;;15.40;82.00;;;;;;10426230;28;20243;-60
2024/03/29 17:18:12;;;;;;;1.83;1.33;;;15.30;82.40;;;;;;10416883;28;20214;-64
2024/03/29 17:23:16;;;;;;;3.38;1.20;;;15.20;82.80;;;;;;10416110;28;20230;-63
2024/03/29 17:28:18;;;;;;;1.25;1.05;;;15.10;83.10;;;;;;10420199;28;20268;-62
2024/03/29 17:33:21;;;;;;;2.63;1.40;;;15.10;83.00;;;;;;10423779;28;20227;-63
2024/03/29 17:38:25;;;;;;;1.30;0.93;;;15.00;82.60;;;;;;10413527;28;20214;-63
2024/03/29 17:43:28;;;;;;;2.15;0.80;;;14.90;82.60;;;;;;10408490;28;20658;-61
2024/03/29 17:48:34;;;;;;;3.28;2.83;;;14.90;82.60;;;;;;10424332;28;20210;-61
2024/03/29 17:53:38;;;;;;;2.45;1.77;;;14.80;82.70;;;;;;10438546;28;20234;-64
2024/03/29 17:58:41;;;;;;;1.50;1.40;;;14.80;82.60;;;;;;10437934;28;20304;-62
2024/03/29 18:03:46;;;;;;;2.47;1.73;;;14.80;82.50;;;;;;10431272;28;20235;-62
2024/03/29 18:08:50;;;;;;;2.58;1.50;;;14.70;82.60;;;;;;10438925;28;20281;-62
2024/03/29 18:13:53;;;;;;;2.60;1.80;;;14.70;82.80;;;;;;10437783;28;20661;-63
2024/03/29 18:18:57;;;;;;;2.28;1.52;;;14.60;82.80;;;;;;10430052;28;20236;-63
2024/03/29 18:24:00;;;;;;;1.95;0.88;;;14.50;83.10;;;;;;10435843;28;20253;-61
2024/03/29 18:29:03;;;;;;;0.70;0.70;;;14.50;82.50;;;;;;10435747;28;20210;-60
2024/03/29 18:34:06;;;;;;;1.50;0.95;;;14.40;82.50;;;;;;10437523;28;20261;-64
2024/03/29 18:39:09;;;;;;;2.13;1.60;;;14.40;82.80;;;;;;10431898;28;20199;-62
2024/03/29 18:44:12;;;;;;;2.50;1.10;;;14.30;82.60;;;;;;10423421;28;20531;-61
2024/03/29 18:49:15;;;;;;;3.22;1.08;;;14.50;83.20;;;;;;10423911;28;20211;-61
2024/03/29 18:54:18;;;;;;;1.83;1.10;;;14.40;82.80;;;;;;10419922;28;20226;-60
2024/03/29 18:59:21;;;;;;;0.82;0.57;;;14.40;83.20;;;;;;10422074;28;20207;-62
2024/03/29 19:04:24;;;;;;;1.10;0.80;;;14.30;83.00;;;;;;10419318;28;20227;-62
2024/03/29 19:09:28;;;;;;;1.33;0.68;;;14.20;83.00;;;;;;10422543;28;20203;-62
2024/03/29 19:14:31;;;;;;;1.10;1.00;;;14.10;83.00;;;;;;10427612;28;20234;-62
2024/03/29 19:19:33;;;;;;;2.38;0.90;;;14.10;83.10;;;;;;10428217;28;20292;-61
2024/03/29 19:24:37;;;;;;;0.95;0.60;;;14.00;83.00;;;;;;10421422;28;20347;-63
2024/03/29 19:29:41;;;;;;;1.65;0.82;;;14.00;82.90;;;;;;10416823;28;20903;-63
2024/03/29 19:34:43;;;;;;;1.63;0.70;;;13.90;82.60;;;;;;10418033;28;20257;-63
2024/03/29 19:39:47;;;;;;;1.23;0.70;;;13.90;82.80;;;;;;10420857;28;20206;-63
2024/03/29 19:44:50;;;;;;;2.95;0.90;;;13.90;83.30;;;;;;10431764;28;20229;-61
2024/03/29 19:49:53;;;;;;;1.60;0.80;;;13.80;82.90;;;;;;10428452;28;20268;-60
2024/03/29 19:54:57;;;;;;;1.30;0.80;;;13.80;82.30;;;;;;10419801;28;20295;-61
2024/03/29 19:59:59;;;;;;;2.08;0.90;;;13.70;82.30;;;;;;10417318;28;20202;-60
2024/03/29 20:05:02;;;;;;;3.33;1.00;;;13.70;83.00;;;;;;10418751;28;20235;-61
2024/03/29 20:10:07;;;;;;;1.80;0.88;;;13.70;83.00;;;;;;10420012;28;20210;-60
2024/03/29 20:15:10;;;;;;;2.35;1.02;;;13.70;82.40;;;;;;10424909;28;20233;-60
2024/03/29 20:20:13;;;;;;;2.05;1.10;;;13.70;82.80;;;;;;10428539;28;20218;-59
2024/03/29 20:25:17;;;;;;;0.98;0.77;;;13.60;82.60;;;;;;10423952;28;20765;-62
2024/03/29 20:30:20;;;;;;;1.10;0.93;;;13.60;83.00;;;;;;10423244;28;21388;-63
2024/03/29 20:35:22;;;;;;;1.25;1.08;;;13.60;82.90;;;;;;10422985;28;20311;-60
2024/03/29 20:40:26;;;;;;;0.80;0.80;;;13.60;83.40;;;;;;10429968;28;20229;-61
2024/03/29 20:45:29;;;;;;;0.70;0.70;;;13.60;82.80;;;;;;10427329;28;20227;-59
2024/03/29 20:50:32;;;;;;;2.08;0.98;;;13.60;83.10;;;;;;10414912;22;20770;-64
2024/03/29 20:55:36;;;;;;;1.80;1.00;;;13.50;83.00;;;;;;10361238;28;20224;-62
2024/03/29 21:00:39;;;;;;;2.42;2.20;;;13.50;82.70;;;;;;10347191;28;20325;-60
2024/03/29 21:05:44;;;;;;;1.65;0.90;;;13.50;82.80;;;;;;10341635;28;20207;-61
2024/03/29 21:10:47;;;;;;;1.33;0.95;;;13.50;83.10;;;;;;10339458;28;20228;-63
2024/03/29 21:15:50;;;;;;;0.73;0.40;;;13.40;82.80;;;;;;10336868;28;20265;-63
2024/03/29 21:20:54;;;;;;;1.60;0.82;;;13.40;82.70;;;;;;10346278;28;20260;-61
2024/03/29 21:25:58;;;;;;;0.85;0.63;;;13.40;83.30;;;;;;10342690;28;20234;-62
2024/03/29 21:31:01;;;;;;;0.60;0.50;;;13.40;82.90;;;;;;10343531;28;20257;-61
2024/03/29 21:36:04;;;;;;;0.90;0.60;;;13.40;82.90;;;;;;10349256;28;20762;-62
2024/03/29 21:41:08;;;;;;;1.67;0.52;;;13.40;83.00;;;;;;10349744;28;20232;-62
2024/03/29 21:46:10;;;;;;;0.70;0.60;;;13.40;82.90;;;;;;10342072;28;20246;-64
2024/03/29 21:51:13;;;;;;;0.60;0.50;;;13.40;82.80;;;;;;10333957;28;20241;-64
2024/03/29 21:56:17;;;;;;;1.00;0.55;;;13.40;82.90;;;;;;10331763;28;20288;-63
2024/03/29 22:01:21;;;;;;;1.35;0.95;;;13.40;82.90;;;;;;10340492;28;20246;-62
2024/03/29 22:06:24;;;;;;;1.20;1.10;;;13.40;82.90;;;;;;10341669;28;20209;-63
2024/03/29 22:11:28;;;;;;;1.92;0.80;;;13.40;83.60;;;;;;10348171;28;20232;-63
2024/03/29 22:16:31;;;;;;;1.30;1.10;;;13.40;83.30;;;;;;10341402;28;20597;-64
2024/03/29 22:21:33;;;;;;;1.45;1.20;;;13.40;83.30;;;;;;10344505;28;20237;-61
2024/03/29 22:26:38;;;;;;;1.38;0.95;;;13.30;83.20;;;;;;10353546;28;20237;-63
2024/03/29 22:31:43;;;;;;;1.17;1.00;;;13.30;84.70;;;;;;10350409;28;21565;-60
2024/03/29 22:36:45;;;;;;;1.77;0.80;;;13.30;84.40;;;;;;10351743;28;20731;-60
2024/03/29 22:41:49;;;;;;;1.35;0.80;;;13.30;85.30;;;;;;10344960;28;20313;-62
2024/03/29 22:46:52;;;;;;;1.00;0.73;;;13.20;85.20;;;;;;10346558;28;20208;-60
2024/03/29 22:51:54;;;;;;;0.85;0.60;;;13.20;85.60;;;;;;10345575;28;20946;-63
2024/03/29 22:56:58;;;;;;;1.52;0.70;;;13.10;85.90;;;;;;10340804;28;21291;-64
2024/03/29 23:02:01;;;;;;;2.55;0.90;;;13.10;85.90;;;;;;10334232;28;20441;-62
2024/03/29 23:07:04;;;;;;;1.52;0.88;;;13.10;85.60;;;;;;10339148;28;20268;-64
2024/03/29 23:12:08;;;;;;;1.85;1.00;;;13.00;86.20;;;;;;10340524;28;20261;-64
2024/03/29 23:17:11;;;;;;;1.52;0.90;;;13.00;86.20;;;;;;10351185;28;20349;-62
2024/03/29 23:22:13;;;;;;;1.45;0.90;;;13.00;86.40;;;;;;10339942;28;20252;-65
2024/03/29 23:27:18;;;;;;;1.17;0.90;;;13.00;87.10;;;;;;10327110;28;21501;-63
2024/03/29 23:32:20;;;;;;;1.00;0.90;;;13.00;87.90;;;;;;10325903;28;20287;-64
2024/03/29 23:37:23;;;;;;;2.05;0.93;;;12.90;87.40;;;;;;10325241;28;21916;-61
2024/03/29 23:42:27;;;;;;;1.60;0.90;;;12.90;87.70;;;;;;10326913;28;20261;-64
2024/03/29 23:47:29;;;;;;;1.77;1.25;;;12.90;88.30;;;;;;10325624;28;21246;-64
2024/03/29 23:52:32;;;;;;;1.17;0.95;;;12.80;88.30;;;;;;10349813;28;20235;-62
2024/03/29 23:57:36;;;;;;;1.50;1.20;;;12.80;88.20;;;;;;10337883;28;20305;-65
